Flight Track Log - Related Links

Times and Time Zones

All times are in EDT time to prevent confusion due to time zone crossing. See the N554 flight status page for this flight to view local times or setup timezone preferences in your user account.

Time Position Orientation Groundspeed Altitude Reporting Facility
EDT Latitude Longitude Course Direction KTS MPH feet Rate Location/Type
Tue 12:01:29 PM 33.2833 -84.1333 180° South 108 124 2,900  Level Atlanta TRACON
Tue 12:02:29 PM 33.2500 -84.1333 180° South 106 122 3,500 579 Climbing Atlanta TRACON
Tue 12:03:23 PM 33.2333 -84.1167 140° Southeast 112 129 4,000 526 Climbing Atlanta TRACON
Tue 12:04:23 PM 33.2000 -84.1167 180° South 119 137 4,500 526 Climbing Atlanta TRACON
Tue 12:05:17 PM 33.1667 -84.1000 157° South 116 133 5,000 474 Climbing Atlanta TRACON
Tue 12:06:17 PM 33.1333 -84.1000 180° South 120 138 5,400 450 Climbing Atlanta TRACON
Tue 12:07:17 PM 33.1000 -84.0833 157° South 124 143 5,900 421 Climbing Atlanta TRACON
Tue 12:08:11 PM 33.0833 -84.0833 180° South 124 143 6,200 417 Climbing Atlanta TRACON
Tue 12:09:12 PM 33.0333 -84.0667 164° South 124 143 6,700 400 Climbing Atlanta TRACON
Tue 12:10:11 PM 33.0167 -84.0500 140° Southeast 126 145 7,000 151 Climbing Atlanta TRACON
Tue 12:11:11 PM 32.9667 -84.0500 180° South 135 155 7,000  Level Atlanta TRACON
Tue 12:12:11 PM 32.9333 -84.0333 157° South 146 168 7,000  Level Atlanta TRACON
Tue 12:13:11 PM 32.9000 -84.0167 157° South 142 163 7,000  Level Atlanta TRACON
Tue 12:14:11 PM 32.8500 -84.0000 164° South 146 168 7,000  Level Atlanta TRACON
Tue 12:15:11 PM 32.8167 -84.0000 180° South 144 166 7,000  Level Atlanta TRACON
Tue 12:16:06 PM 32.7833 -83.9833 157° South 144 166 7,000 -52 Level Atlanta TRACON
Tue 12:17:06 PM 32.7500 -83.9667 157° South 144 166 6,900 -50 Descending Atlanta TRACON
Tue 12:18:06 PM 32.7000 -83.9667 180° South 140 161 6,900  Level Atlanta TRACON
Tue 12:19:05 PM 32.6667 -83.9500 157° South 144 166 6,900  Level Atlanta TRACON
Tue 12:20:05 PM 32.6333 -83.9333 157° South 144 166 6,900  Level Atlanta TRACON
Tue 12:21:05 PM 32.5833 -83.9333 180° South 148 170 6,900  Level Atlanta TRACON
Tue 12:22:06 PM 32.5500 -83.9167 157° South 144 166 6,900  Level Atlanta TRACON
Tue 12:23:06 PM 32.5167 -83.9000 157° South 138 159 6,900  Level Atlanta TRACON
Tue 12:24:06 PM 32.4833 -83.8833 157° South 140 161 6,900  Level Atlanta TRACON
Tue 12:25:06 PM 32.4333 -83.8833 180° South 145 167 6,900 53 Level Atlanta TRACON
Tue 12:26:00 PM 32.4000 -83.8667 157° South 142 163 7,000  Climbing Atlanta TRACON
Tue 12:27:00 PM 32.3667 -83.8500 157° South 143 165 6,900 -50 Descending Atlanta TRACON
Tue 12:28:00 PM 32.3333 -83.8500 180° South 144 166 6,900  Level Atlanta TRACON
Tue 12:29:00 PM 32.2833 -83.8333 164° South 145 167 6,900 60 Level Atlanta TRACON
Tue 12:29:40 PM 32.2592 -83.8286 171° South 143 165 7,000 60 Climbing Jacksonville Center
Tue 12:30:40 PM 32.2217 -83.8183 167° South 155 178 7,000  Level Jacksonville Center
Tue 12:31:40 PM 32.1800 -83.8033 163° South 155 178 7,000  Level Jacksonville Center
Tue 12:32:40 PM 32.1425 -83.7931 167° South 150 173 7,000  Level Jacksonville Center
Tue 12:33:40 PM 32.1028 -83.7803 165° South 145 167 7,000  Level Jacksonville Center
Tue 12:34:40 PM 32.0653 -83.7703 167° South 145 167 7,000  Level Jacksonville Center
Tue 12:35:40 PM 32.0278 -83.7575 164° South 145 167 7,000  Level Jacksonville Center
Tue 12:36:40 PM 31.9883 -83.7450 165° South 145 167 7,000  Level Jacksonville Center
Tue 12:37:40 PM 31.9486 -83.7347 168° South 145 167 7,000  Level Jacksonville Center
Tue 12:38:40 PM 31.9111 -83.7222 164° South 145 167 7,000  Level Jacksonville Center
Tue 12:39:40 PM 31.8717 -83.7122 168° South 145 167 7,000  Level Jacksonville Center
Tue 12:40:40 PM 31.8319 -83.6994 165° South 145 167 7,000  Level Jacksonville Center
Tue 12:41:15 PM 31.8092 -83.6944 169° South 141 162 7,000  Level Jacksonville Center
Tue 12:41:40 PM 31.8028 -83.6919 162° South 145 167 7,000  Level Jacksonville Center
Tue 12:42:16 PM 31.7694 -83.6844 169° South 142 163 7,000  Level Jacksonville Center
Tue 12:42:40 PM 31.7592 -83.6794 158° South 145 167 7,000  Level Jacksonville Center
Tue 12:43:16 PM 31.7342 -83.6717 165° South 142 163 7,000  Level Jacksonville Center
Tue 12:43:40 PM 31.7217 -83.6644 154° Southeast 145 167 7,000  Level Jacksonville Center
Tue 12:44:17 PM 31.6922 -83.6617 175° South 145 167 7,000  Level Jacksonville Center
Tue 12:44:40 PM 31.6819 -83.6542 148° Southeast 145 167 7,000  Level Jacksonville Center
Tue 12:45:17 PM 31.6547 -83.6492 171° South 144 166 7,000  Level Jacksonville Center
Tue 12:45:40 PM 31.6444 -83.6442 158° South 145 167 7,000  Level Jacksonville Center
Tue 12:46:18 PM 31.6153 -83.6392 172° South 141 162 7,000  Level Jacksonville Center
Tue 12:46:40 PM 31.6047 -83.6317 149° Southeast 145 167 7,000  Level Jacksonville Center
Tue 12:47:18 PM 31.5778 -83.6242 167° South 142 163 7,000  Level Jacksonville Center
Tue 12:47:40 PM 31.5672 -83.6217 169° South 145 167 7,000  Level Jacksonville Center
Tue 12:48:19 PM 31.5361 -83.6142 168° South 142 163 7,000  Level Jacksonville Center
Tue 12:48:40 PM 31.5297 -83.6092 146° Southeast 145 167 7,000  Level Jacksonville Center
Tue 12:49:20 PM 31.4986 -83.6042 172° South 143 165 7,000  Level Jacksonville Center
Tue 12:49:40 PM 31.4903 -83.5992 153° Southeast 145 167 7,000  Level Jacksonville Center
Tue 12:50:20 PM 31.4589 -83.5892 165° South 145 167 7,000  Level Jacksonville Center
Tue 12:50:40 PM 31.4528 -83.5867 161° South 145 167 7,000  Level Jacksonville Center
Tue 12:51:21 PM 31.4194 -83.5792 169° South 145 167 7,000  Level Jacksonville Center
Tue 12:52:21 PM 31.3817 -83.5692 167° South 145 167 7,000  Level Jacksonville Center
Tue 12:53:22 PM 31.3400 -83.5542 163° South 146 168 7,000  Level Jacksonville Center
Tue 12:54:23 PM 31.3025 -83.5442 167° South 145 167 7,000  Level Jacksonville Center
Tue 12:55:23 PM 31.2608 -83.5317 166° South 145 167 7,000  Level Jacksonville Center
Tue 12:56:24 PM 31.2256 -83.5194 163° South 144 166 7,000  Level Jacksonville Center
Tue 12:57:24 PM 31.1836 -83.5069 166° South 146 168 7,000  Level Jacksonville Center
Tue 12:58:25 PM 31.1400 -83.4969 169° South 147 169 7,000  Level Jacksonville Center
Tue 12:59:26 PM 31.1044 -83.4822 160° South 148 170 7,000  Level Jacksonville Center
Tue 01:00:26 PM 31.0608 -83.4722 169° South 147 169 7,000  Level Jacksonville Center
Tue 01:01:27 PM 31.0231 -83.4622 167° South 148 170 7,000  Level Jacksonville Center
Tue 01:02:28 PM 30.9794 -83.4475 164° South 148 170 7,000  Level Jacksonville Center
Tue 01:03:28 PM 30.9439 -83.4400 170° South 146 168 7,000  Level Jacksonville Center
Tue 01:04:29 PM 30.9022 -83.4278 166° South 149 171 7,000  Level Jacksonville Center
Tue 01:05:29 PM 30.8583 -83.4128 164° South 148 170 7,000  Level Jacksonville Center
Tue 01:06:30 PM 30.8208 -83.4031 167° South 148 170 7,000  Level Jacksonville Center
Tue 01:07:30 PM 30.7814 -83.3931 168° South 143 165 7,000  Level Jacksonville Center
Tue 01:08:31 PM 30.7436 -83.3808 164° South 144 166 7,000  Level Jacksonville Center
Tue 01:09:32 PM 30.7019 -83.3686 166° South 144 166 7,000  Level Jacksonville Center
Tue 01:10:32 PM 30.6644 -83.3586 167° South 149 171 7,000  Level Jacksonville Center
Tue 01:11:33 PM 30.6228 -83.3439 163° South 148 170 7,000  Level Jacksonville Center
Tue 01:12:27 PM 30.5914 -83.3319 162° South 156 180 7,000  Level Jacksonville Center
Tue 01:13:27 PM 30.5519 -83.3244 171° South 162 186 7,000  Level Jacksonville Center
Tue 01:14:27 PM 30.5122 -83.3097 162° South 162 186 7,000  Level Jacksonville Center
Tue 01:15:27 PM 30.4747 -83.3000 167° South 157 181 7,000  Level Jacksonville Center
Tue 01:16:27 PM 30.4350 -83.2878 165° South 146 168 7,000  Level Jacksonville Center
Tue 01:17:27 PM 30.3953 -83.2756 165° South 146 168 7,000  Level Jacksonville Center
Tue 01:19:27 PM 30.3183 -83.2536 166° South 146 168 7,000  Level Jacksonville Center
Tue 01:20:27 PM 30.2786 -83.2439 168° South 146 168 7,000  Level Jacksonville Center
Tue 01:21:27 PM 30.2411 -83.2317 164° South 146 168 7,000  Level Jacksonville Center
Tue 01:22:27 PM 30.2014 -83.2219 168° South 146 168 7,000  Level Jacksonville Center
Tue 01:23:27 PM 30.1597 -83.2097 166° South 146 168 7,000  Level Jacksonville Center
Tue 01:24:27 PM 30.1222 -83.1975 164° South 146 168 7,000  Level Jacksonville Center
Tue 01:25:27 PM 30.0825 -83.1856 165° South 146 168 7,000  Level Jacksonville Center
Tue 01:26:27 PM 30.0428 -83.1758 168° South 146 168 7,000  Level Jacksonville Center
Tue 01:27:27 PM 30.0031 -83.1731 177° South 146 168 7,000  Level Jacksonville Center
Tue 01:28:27 PM 29.9656 -83.1731 180° South 141 162 7,000  Level Jacksonville Center
Tue 01:29:27 PM 29.9281 -83.1753 183° South 141 162 7,000  Level Jacksonville Center
Tue 01:30:27 PM 29.8883 -83.1753 180° South 141 162 7,000  Level Jacksonville Center
Tue 01:31:27 PM 29.8508 -83.1753 180° South 141 162 7,000  Level Jacksonville Center
Tue 01:32:27 PM 29.8131 -83.1775 183° South 141 162 7,000  Level Jacksonville Center
Tue 01:33:27 PM 29.7756 -83.1772 180° South 141 162 7,000  Level Jacksonville Center
Tue 01:34:27 PM 29.7358 -83.1772 180° South 141 162 7,000  Level Jacksonville Center
Tue 01:35:27 PM 29.6983 -83.1747 177° South 141 162 7,000  Level Jacksonville Center
Tue 01:36:27 PM 29.6608 -83.1625 164° South 141 162 7,000  Level Jacksonville Center
Tue 01:37:27 PM 29.6169 -83.1506 167° South 141 162 7,000  Level Jacksonville Center
Tue 01:38:27 PM 29.5794 -83.1386 165° South 141 162 7,000  Level Jacksonville Center
Tue 01:39:27 PM 29.5397 -83.1289 168° South 146 168 7,000  Level Jacksonville Center
Tue 01:40:27 PM 29.5022 -83.1169 165° South 146 168 7,000  Level Jacksonville Center
Tue 01:41:27 PM 29.4606 -83.1047 166° South 146 168 7,000  Level Jacksonville Center
Tue 01:42:27 PM 29.4208 -83.0953 168° South 146 168 7,000  Level Jacksonville Center
Tue 01:43:27 PM 29.3792 -83.0833 166° South 146 168 7,000  Level Jacksonville Center
Tue 01:44:27 PM 29.3394 -83.0736 168° South 146 168 7,000  Level Jacksonville Center
Tue 01:45:27 PM 29.2997 -83.0639 168° South 146 168 7,000  Level Jacksonville Center
Tue 01:46:27 PM 29.2622 -83.0519 164° South 146 168 7,000  Level Jacksonville Center
Tue 01:47:27 PM 29.2225 -83.0400 165° South 146 168 7,000  Level Jacksonville Center
Tue 01:48:27 PM 29.1831 -83.0306 168° South 146 168 7,000  Level Jacksonville Center
Tue 01:49:27 PM 29.1433 -83.0186 165° South 146 168 7,000  Level Jacksonville Center
Tue 01:50:27 PM 29.1058 -83.0092 168° South 146 168 7,000 -150 Level Jacksonville Center
Tue 01:51:27 PM 29.0639 -82.9969 166° South 146 168 6,700 -300 Descending Jacksonville Center
Tue 01:52:27 PM 29.0222 -82.9875 169° South 151 174 6,400 -350 Descending Jacksonville Center
Tue 01:53:27 PM 28.9783 -82.9733 164° South 156 180 6,000 -400 Descending Jacksonville Center
Tue 01:54:27 PM 28.9347 -82.9614 167° South 161 185 5,600 -350 Descending Jacksonville Center
Tue 01:55:27 PM 28.8908 -82.9519 169° South 161 185 5,300 -300 Descending Jacksonville Center
Tue 01:56:27 PM 28.8469 -82.9400 167° South 161 185 5,000 -102 Descending Jacksonville Center
Tue 01:58:24 PM 28.7667 -82.9167 166° South 147 169 5,000  Level Tampa TRACON
Tue 01:59:24 PM 28.7333 -82.9167 180° South 146 168 5,000  Level Tampa TRACON
Tue 02:00:24 PM 28.6833 -82.9000 164° South 148 170 5,000  Level Tampa TRACON
Tue 02:01:24 PM 28.6500 -82.8833 156° South 151 174 5,000  Level Tampa TRACON
Tue 02:01:55 PM 28.6308 -82.8778 166° South 150 173 5,000  Level Miami Center
Tue 02:02:30 PM 28.6000 -82.8667 162° South 149 171 5,000  Level Tampa TRACON
Tue 02:03:30 PM 28.5667 -82.8667 180° South 148 170 5,000 -105 Level Tampa TRACON
Tue 02:04:24 PM 28.5167 -82.8500 164° South 150 173 4,800 -316 Descending Tampa TRACON
Tue 02:05:24 PM 28.4833 -82.8500 180° South 162 186 4,400 -400 Descending Tampa TRACON
Tue 02:06:24 PM 28.4333 -82.8500 180° South 169 194 4,000 -211 Descending Tampa TRACON
Tue 02:07:18 PM 28.4000 -82.8500 180° South 161 185 4,000  Level Tampa TRACON
Tue 02:08:06 PM 28.3622 -82.8486 178° South 160 184 4,000  Level Miami Center
Tue 02:09:18 PM 28.3167 -82.8500 182° South 153 176 4,000  Level Tampa TRACON
Tue 02:10:18 PM 28.2667 -82.8500 180° South 153 176 4,000  Level Tampa TRACON
Tue 02:11:13 PM 28.2333 -82.8500 180° South 150 173 4,000  Level Tampa TRACON
Tue 02:12:18 PM 28.1833 -82.8333 164° South 150 173 4,000 -143 Level Tampa TRACON
Tue 02:13:19 PM 28.1500 -82.8333 180° South 154 177 3,700 -429 Descending Tampa TRACON
Tue 02:14:24 PM 28.1000 -82.8167 164° South 177 204 3,100 -476 Descending Tampa TRACON
Tue 02:15:25 PM 28.0333 -82.8000 168° South 177 204 2,700 -261 Descending Tampa TRACON
Tue 02:16:19 PM 28.0000 -82.8000 180° South 164 189 2,600 -53 Descending Tampa TRACON
Tue 02:17:19 PM 27.9667 -82.7833 156° South 155 178 2,600 -300 Level Tampa TRACON
Tue 02:18:19 PM 27.9167 -82.7500 149° Southeast 177 204 2,000 -550 Descending Tampa TRACON
Tue 02:19:19 PM 27.8833 -82.7333 156° South 161 185 1,500 -500 Descending Tampa TRACON
Tue 02:20:19 PM 27.8667 -82.7000 119° Southeast 145 167 1,000 -550 Descending Tampa TRACON
Tue 02:21:19 PM 27.8833 -82.6833 41° Northeast 109 125 400 -600 Descending Tampa TRACON
Tue 02:23:00 PM 27.9000 -82.6833 North  Level FlightAware Approximate
Tue 02:30:00 PM 27.9100 -82.6875 North  Level Estimated
Tue 02:31:00 PM 27.9100 -82.6875 North  Level Estimated

Login

Don't have an account? Register now (free) for customized features, flight alerts, and more!